Terminal Aerodrome Forecast
Issued by NWS

Home | Current Version | Previous Version | Text Only | Print | Product List | Glossary On
Versions: 1 2 3 4 5 6 7 8 9 10 11 12 13 14
000
FTUS45 KREV 221700
TAFMMH
TAF
KMMH 221724Z 2218/2318 11007KT P6SM SKC
     FM222100 25012G18KT P6SM FEW030 SCT180
     FM230400 30007KT P6SM SCT180=

USA.gov is the U.S. government's official web portal to all federal, state and local government web resources and services.